Winslow Park, Kentucky
Current Conditions -  °F | °C
As of 6:15 PM on Friday 21 Nov 2014 (Local Time) from K5M9 Reporting Station
Overcast Overcast  
Wind Chill: 39°   Ceiling: 3800
Heat Index: 43°   Visibility: 10mi
Dew Point: 22°   Wind: 7mph
Humidity: 42%   Direction: 120°ESE
Pressure: 30.34"   Gusts: NA
Location:  37.3359°N, 88.1049°W
Report Text: K5M9 220015Z AUTO 12006KT 10SM BKN038 OVC044 06/M06 A3034 RMK AO2 T00621058
Loading
Personal Weather Stations






























Interactive Weather Map New forecast layout! Learn more

10-Day Weather Forecast

Advertisements
Track Severe Weather on mobile